createdAt,value
2019-06-26T00:02:02.857Z,7.60
2019-06-26T00:04:33.145Z,8.08
2019-06-26T00:07:03.500Z,7.20
2019-06-26T00:09:33.792Z,7.15
2019-06-26T00:12:04.278Z,6.30
2019-06-26T00:14:38.411Z,8.17
2019-06-26T00:17:06.905Z,8.25
2019-06-26T00:19:37.745Z,7.97
2019-06-26T00:22:08.458Z,8.25
2019-06-26T00:24:40.378Z,10.33
2019-06-26T00:27:10.869Z,6.95
2019-06-26T00:29:41.147Z,6.73
2019-06-26T00:32:11.544Z,9.73
2019-06-26T00:34:42.317Z,12.88
2019-06-26T00:37:12.765Z,7.63
2019-06-26T00:39:43.209Z,11.33
2019-06-26T00:42:13.884Z,8.70
2019-06-26T00:44:44.245Z,7.53
2019-06-26T00:47:14.710Z,8.00
2019-06-26T00:49:45.081Z,8.00
2019-06-26T00:52:15.547Z,9.48
2019-06-26T00:54:45.859Z,8.30
2019-06-26T00:57:16.263Z,8.30
2019-06-26T00:59:46.561Z,9.40
2019-06-26T01:02:16.885Z,8.57
2019-06-26T01:04:48.975Z,8.30
2019-06-26T01:07:19.357Z,7.80
2019-06-26T01:09:49.723Z,10.93
2019-06-26T01:12:20.080Z,8.20
2019-06-26T01:14:50.446Z,8.10
2019-06-26T01:17:20.693Z,8.38
2019-06-26T01:19:51.060Z,8.73
2019-06-26T01:22:21.454Z,8.50
2019-06-26T01:24:51.964Z,9.30
2019-06-26T01:27:22.454Z,9.03
2019-06-26T01:29:52.934Z,9.67
2019-06-26T01:32:23.276Z,8.20
2019-06-26T01:34:53.709Z,7.43
2019-06-26T01:37:24.290Z,8.10
2019-06-26T01:39:54.772Z,7.97
2019-06-26T01:42:25.183Z,9.73
2019-06-26T01:44:55.483Z,8.03
2019-06-26T01:47:26.890Z,8.53
2019-06-26T01:49:57.334Z,8.87
2019-06-26T01:52:28.058Z,7.93
2019-06-26T01:54:58.530Z,8.10
2019-06-26T01:57:28.981Z,8.63
2019-06-26T01:59:59.327Z,7.87
2019-06-26T02:02:29.710Z,7.83
2019-06-26T02:05:00.044Z,8.53
2019-06-26T02:07:30.492Z,8.80
2019-06-26T02:10:00.750Z,8.43
2019-06-26T02:12:31.231Z,8.53
2019-06-26T02:15:01.928Z,8.23
2019-06-26T02:17:32.502Z,8.43
2019-06-26T02:20:02.910Z,8.13
2019-06-26T02:22:33.373Z,8.88
2019-06-26T02:25:04.191Z,10.23
2019-06-26T02:27:34.645Z,9.33
2019-06-26T02:30:05.664Z,8.80
2019-06-26T02:32:36.051Z,9.50
2019-06-26T02:35:09.640Z,9.40
2019-06-26T02:37:39.166Z,9.53
2019-06-26T02:40:11.508Z,10.33
2019-06-26T02:42:42.335Z,10.13
2019-06-26T02:45:16.219Z,9.20
2019-06-26T02:47:46.542Z,9.73
2019-06-26T02:50:17.077Z,9.50
2019-06-26T02:52:47.606Z,9.80
2019-06-26T02:55:18.227Z,9.30
2019-06-26T02:57:48.669Z,8.73
2019-06-26T03:00:19.235Z,10.77
2019-06-26T03:02:49.574Z,9.47
2019-06-26T03:05:19.936Z,10.60
2019-06-26T03:07:50.326Z,9.83
2019-06-26T03:10:21.139Z,10.57
2019-06-26T03:12:51.742Z,9.80
2019-06-26T03:15:22.153Z,9.83
2019-06-26T03:17:55.629Z,10.32
2019-06-26T03:20:29.116Z,11.20
2019-06-26T03:23:00.003Z,10.45
2019-06-26T03:25:30.473Z,9.63
2019-06-26T03:28:01.148Z,12.10
2019-06-26T03:30:31.503Z,9.47
2019-06-26T03:33:02.163Z,11.63
2019-06-26T03:35:32.706Z,9.90
2019-06-26T03:38:03.250Z,11.60
2019-06-26T03:40:33.665Z,10.23
2019-06-26T03:43:05.793Z,10.50
2019-06-26T03:45:36.292Z,10.50
2019-06-26T03:48:06.779Z,10.98
2019-06-26T03:50:37.465Z,11.18
2019-06-26T03:53:07.933Z,9.60
2019-06-26T03:55:38.434Z,11.00
2019-06-26T03:58:08.914Z,9.38
2019-06-26T04:00:43.698Z,10.48
2019-06-26T04:03:14.138Z,9.40
2019-06-26T04:05:44.513Z,13.48
2019-06-26T04:08:14.842Z,14.13
2019-06-26T04:10:45.325Z,21.68
2019-06-26T04:13:15.939Z,9.78
2019-06-26T04:15:46.422Z,10.82
2019-06-26T04:18:16.849Z,10.40
2019-06-26T04:20:47.311Z,10.65
2019-06-26T04:23:17.656Z,10.30
2019-06-26T04:25:48.033Z,10.55
2019-06-26T04:28:18.452Z,10.28
2019-06-26T04:30:48.761Z,10.70
2019-06-26T04:33:19.186Z,12.82
2019-06-26T04:35:49.929Z,11.80
2019-06-26T04:38:20.297Z,9.90
2019-06-26T04:40:50.911Z,10.25
2019-06-26T04:43:21.346Z,10.75
2019-06-26T04:45:58.282Z,11.97
2019-06-26T04:48:24.081Z,10.82
2019-06-26T04:50:54.535Z,10.88
2019-06-26T04:53:24.862Z,10.85
2019-06-26T04:55:55.254Z,9.13
2019-06-26T04:58:25.679Z,8.45
2019-06-26T05:00:56.073Z,9.25
2019-06-26T05:03:26.533Z,9.25
2019-06-26T05:05:57.130Z,13.03
2019-06-26T05:08:27.532Z,10.75
2019-06-26T05:10:58.210Z,12.35
2019-06-26T05:13:28.933Z,11.97
2019-06-26T05:16:13.755Z,12.25
2019-06-26T05:18:31.448Z,11.25
2019-06-26T05:21:02.275Z,11.45
2019-06-26T05:23:32.992Z,11.53
2019-06-26T05:26:03.322Z,10.80
2019-06-26T05:28:33.858Z,11.15
2019-06-26T05:31:04.377Z,12.35
2019-06-26T05:33:35.318Z,14.90
2019-06-26T05:36:05.870Z,11.97
2019-06-26T05:38:36.479Z,11.78
2019-06-26T05:41:06.872Z,11.57
2019-06-26T05:43:37.387Z,11.68
2019-06-26T05:46:07.866Z,13.58
2019-06-26T05:48:38.268Z,11.40
2019-06-26T05:51:09.035Z,12.37
2019-06-26T05:53:39.565Z,12.25
2019-06-26T05:56:10.129Z,12.58
2019-06-26T05:58:40.575Z,12.30
2019-06-26T06:01:11.033Z,13.35
2019-06-26T06:03:41.345Z,12.95
2019-06-26T06:06:11.855Z,14.13
2019-06-26T06:08:42.338Z,13.98
2019-06-26T06:11:12.675Z,11.97
2019-06-26T06:13:43.062Z,10.48
2019-06-26T06:16:13.470Z,11.68
2019-06-26T06:18:43.930Z,13.62
2019-06-26T06:21:14.377Z,11.60
2019-06-26T06:23:44.752Z,15.80
2019-06-26T06:26:15.527Z,10.95
2019-06-26T06:28:46.024Z,14.78
2019-06-26T06:31:16.553Z,14.10
2019-06-26T06:33:47.359Z,12.75
2019-06-26T06:36:18.020Z,11.55
2019-06-26T06:38:48.412Z,11.55
2019-06-26T06:41:19.053Z,12.78
2019-06-26T06:43:49.454Z,11.73
2019-06-26T06:46:19.790Z,10.48
2019-06-26T06:48:50.167Z,11.33
2019-06-26T06:51:20.902Z,13.60
2019-06-26T06:53:51.349Z,11.97
2019-06-26T06:56:22.143Z,12.00
2019-06-26T06:58:52.737Z,13.40
2019-06-26T07:01:23.640Z,14.85
2019-06-26T07:03:53.951Z,12.88
2019-06-26T07:06:24.589Z,12.23
2019-06-26T07:08:55.078Z,20.62
2019-06-26T07:11:25.576Z,9.88
2019-06-26T07:13:56.390Z,7.90
2019-06-26T07:16:26.940Z,9.05
2019-06-26T07:18:57.575Z,9.43
2019-06-26T07:21:28.027Z,7.92
2019-06-26T07:23:58.411Z,8.50
2019-06-26T07:26:28.884Z,13.95
2019-06-26T07:28:59.353Z,8.10
2019-06-26T07:31:29.751Z,8.30
2019-06-26T07:34:00.350Z,7.80
2019-06-26T07:36:31.079Z,8.65
2019-06-26T07:39:01.463Z,7.22
2019-06-26T07:41:31.841Z,8.20
2019-06-26T07:44:02.226Z,7.53
2019-06-26T07:46:32.948Z,9.38
2019-06-26T07:49:03.438Z,8.35
2019-06-26T07:51:33.863Z,8.38
2019-06-26T07:54:04.521Z,8.05
2019-06-26T07:56:34.912Z,9.10
2019-06-26T07:59:05.330Z,8.15
2019-06-26T08:01:35.955Z,8.38
2019-06-26T08:04:06.592Z,7.87
2019-06-26T08:06:37.139Z,9.28
2019-06-26T08:09:07.987Z,9.35
2019-06-26T08:11:38.449Z,9.55
2019-06-26T08:14:09.259Z,9.15
2019-06-26T08:16:40.040Z,8.18
2019-06-26T08:19:10.553Z,8.00
2019-06-26T08:21:40.874Z,10.13
2019-06-26T08:24:11.282Z,7.50
2019-06-26T08:26:41.662Z,6.80
2019-06-26T08:29:12.662Z,8.30
2019-06-26T08:31:43.340Z,6.58
2019-06-26T08:34:13.665Z,11.00
2019-06-26T08:36:44.044Z,7.95
2019-06-26T08:39:14.465Z,7.20
2019-06-26T08:41:44.864Z,6.65
2019-06-26T08:44:15.385Z,7.25
2019-06-26T08:46:45.816Z,5.85
2019-06-26T08:49:25.694Z,7.80
2019-06-26T08:51:48.407Z,6.83
2019-06-26T08:54:18.831Z,6.97
2019-06-26T08:56:49.247Z,6.20
2019-06-26T08:59:19.728Z,6.78
2019-06-26T09:01:50.150Z,6.85
2019-06-26T09:04:20.623Z,6.25
2019-06-26T09:06:51.333Z,6.22
2019-06-26T09:09:21.737Z,6.83
2019-06-26T09:11:52.136Z,6.78
2019-06-26T09:14:22.544Z,7.30
2019-06-26T09:16:53.000Z,6.90
2019-06-26T09:19:23.394Z,7.87
2019-06-26T09:21:53.771Z,6.08
2019-06-26T09:24:24.093Z,6.22
2019-06-26T09:26:54.513Z,6.08
2019-06-26T09:29:24.959Z,6.90
2019-06-26T09:31:55.258Z,6.95
2019-06-26T09:34:25.669Z,5.37
2019-06-26T09:36:56.118Z,9.20
2019-06-26T09:39:26.594Z,7.42
2019-06-26T09:41:56.915Z,7.60
2019-06-26T09:44:27.389Z,6.42
2019-06-26T09:46:57.722Z,5.65
2019-06-26T09:49:28.198Z,7.30
2019-06-26T09:51:58.653Z,5.45
2019-06-26T09:54:29.056Z,5.40
2019-06-26T09:56:59.506Z,5.92
2019-06-26T09:59:29.884Z,9.58
2019-06-26T10:02:00.319Z,9.40
2019-06-26T10:04:30.682Z,5.58
2019-06-26T10:07:01.059Z,6.50
2019-06-26T10:09:31.521Z,6.00
2019-06-26T10:12:01.898Z,7.55
2019-06-26T10:14:46.604Z,6.40
2019-06-26T10:17:04.607Z,5.55
2019-06-26T10:19:35.082Z,5.65
2019-06-26T10:22:05.788Z,7.92
2019-06-26T10:24:37.612Z,9.75
2019-06-26T10:27:08.123Z,5.72
2019-06-26T10:29:38.528Z,5.90
2019-06-26T10:32:08.934Z,6.12
2019-06-26T10:34:39.422Z,7.03
2019-06-26T10:37:09.940Z,7.70
2019-06-26T10:39:40.352Z,9.00
2019-06-26T10:42:10.826Z,8.78
2019-06-26T10:44:41.298Z,9.68
2019-06-26T10:47:12.046Z,6.28
2019-06-26T10:49:42.389Z,22.15
2019-06-26T10:52:12.837Z,5.60
2019-06-26T10:54:44.593Z,10.20
2019-06-26T10:57:15.246Z,9.50
2019-06-26T10:59:45.950Z,6.62
2019-06-26T11:02:17.114Z,7.33
2019-06-26T11:04:47.675Z,5.25
2019-06-26T11:07:18.138Z,7.65
2019-06-26T11:09:48.525Z,5.65
2019-06-26T11:12:19.001Z,12.45
2019-06-26T11:14:49.504Z,10.58
2019-06-26T11:17:19.803Z,9.55
2019-06-26T11:19:50.200Z,6.10
2019-06-26T11:22:30.417Z,5.67
2019-06-26T11:25:00.964Z,9.30
2019-06-26T11:27:31.503Z,5.58
2019-06-26T11:30:02.047Z,10.78
2019-06-26T11:32:32.811Z,8.65
2019-06-26T11:35:03.310Z,8.20
2019-06-26T11:37:34.276Z,7.85
2019-06-26T11:40:05.491Z,6.42
2019-06-26T11:42:36.190Z,10.25
2019-06-26T11:45:07.856Z,5.30
2019-06-26T11:47:38.659Z,6.80
2019-06-26T11:50:10.879Z,6.53
2019-06-26T11:52:41.486Z,5.15
2019-06-26T11:55:15.330Z,8.28
2019-06-26T11:57:45.949Z,7.83
2019-06-26T12:00:17.575Z,8.05
2019-06-26T12:02:48.009Z,7.65
2019-06-26T12:05:19.182Z,7.08
2019-06-26T12:07:49.639Z,10.50
2019-06-26T12:10:20.632Z,6.05
2019-06-26T12:12:51.007Z,10.72
2019-06-26T12:15:24.017Z,5.30
2019-06-26T12:17:54.707Z,8.28
2019-06-26T12:20:25.114Z,8.20
2019-06-26T12:22:55.497Z,7.03
2019-06-26T12:25:25.902Z,5.20
2019-06-26T12:27:56.303Z,7.03
2019-06-26T12:30:26.873Z,8.98
2019-06-26T12:33:03.459Z,7.17
2019-06-26T12:35:29.365Z,7.85
2019-06-26T12:37:59.912Z,6.40
2019-06-26T12:40:31.423Z,6.67
2019-06-26T12:43:02.163Z,7.03
2019-06-26T12:45:32.586Z,7.22
2019-06-26T12:48:03.093Z,9.63
2019-06-26T12:50:35.888Z,9.30
2019-06-26T12:53:05.698Z,7.15
2019-06-26T12:55:36.126Z,11.48
2019-06-26T12:58:13.014Z,6.42
2019-06-26T13:00:38.878Z,10.32
2019-06-26T13:03:09.426Z,10.45
2019-06-26T13:05:39.874Z,8.35
2019-06-26T13:08:10.409Z,7.87
2019-06-26T13:10:49.479Z,7.33
2019-06-26T13:13:13.390Z,6.85
2019-06-26T13:15:43.898Z,10.05
2019-06-26T13:18:14.429Z,5.95
2019-06-26T13:20:52.846Z,7.22
2019-06-26T13:23:17.309Z,6.10
2019-06-26T13:25:47.845Z,7.42
2019-06-26T13:28:18.257Z,6.50
2019-06-26T13:30:48.692Z,6.28
2019-06-26T13:33:19.137Z,8.08
2019-06-26T13:35:49.517Z,7.80
2019-06-26T13:38:19.874Z,6.92
2019-06-26T13:40:50.299Z,8.40
2019-06-26T13:43:20.789Z,6.45
2019-06-26T13:45:51.175Z,11.68
2019-06-26T13:48:21.597Z,6.65
2019-06-26T13:51:07.835Z,6.35
2019-06-26T13:53:24.400Z,9.05
2019-06-26T13:55:55.140Z,7.50
2019-06-26T13:58:25.595Z,10.70
2019-06-26T14:00:56.104Z,8.20
2019-06-26T14:03:26.509Z,11.00
2019-06-26T14:05:57.354Z,9.73
2019-06-26T14:08:28.308Z,8.83
2019-06-26T14:10:58.896Z,10.70
2019-06-26T14:13:29.302Z,9.40
2019-06-26T14:15:59.812Z,6.42
2019-06-26T14:18:30.647Z,7.62
2019-06-26T14:21:01.120Z,10.58
2019-06-26T14:23:31.611Z,8.88
2019-06-26T14:26:02.167Z,7.80
2019-06-26T14:28:32.505Z,8.00
2019-06-26T14:31:02.916Z,8.83
2019-06-26T14:33:33.462Z,7.92
2019-06-26T14:36:04.227Z,11.40
2019-06-26T14:38:34.892Z,10.13
2019-06-26T14:41:05.300Z,9.30
2019-06-26T14:43:36.378Z,9.33
2019-06-26T14:46:07.086Z,8.03
2019-06-26T14:48:37.512Z,8.70
2019-06-26T14:51:07.764Z,8.93
2019-06-26T14:53:38.317Z,7.35
2019-06-26T14:56:08.922Z,9.90
2019-06-26T14:58:39.248Z,8.98
2019-06-26T15:01:09.686Z,13.38
2019-06-26T15:03:40.027Z,7.03
2019-06-26T15:06:16.592Z,7.78
2019-06-26T15:08:42.602Z,6.75
2019-06-26T15:11:15.490Z,9.70
2019-06-26T15:13:45.442Z,6.12
2019-06-26T15:16:15.821Z,5.75
2019-06-26T15:18:46.066Z,9.83
2019-06-26T15:21:16.374Z,7.03
2019-06-26T15:23:46.854Z,10.93
2019-06-26T15:26:17.301Z,6.17
2019-06-26T15:28:47.839Z,13.90
2019-06-26T15:31:18.209Z,10.25
2019-06-26T15:33:48.574Z,6.47
2019-06-26T15:36:19.116Z,7.22
2019-06-26T15:38:49.597Z,6.30
2019-06-26T15:41:19.990Z,5.78
2019-06-26T15:43:50.564Z,7.50
2019-06-26T15:46:20.877Z,9.93
2019-06-26T15:48:51.281Z,9.63
2019-06-26T15:51:21.665Z,5.87
2019-06-26T15:53:51.936Z,7.72
2019-06-26T15:56:22.329Z,8.30
2019-06-26T15:58:52.745Z,7.17
2019-06-26T16:01:23.203Z,7.33
2019-06-26T16:03:53.618Z,7.85
2019-06-26T16:06:24.006Z,8.45
2019-06-26T16:08:54.342Z,5.42
2019-06-26T16:11:24.738Z,6.35
2019-06-26T16:13:55.218Z,7.05
2019-06-26T16:16:25.534Z,7.85
2019-06-26T16:19:01.035Z,6.22
2019-06-26T16:21:31.351Z,9.35
2019-06-26T16:24:02.164Z,6.42
2019-06-26T16:26:32.535Z,8.73
2019-06-26T16:29:02.945Z,7.50
2019-06-26T16:31:33.373Z,8.48
2019-06-26T16:34:04.471Z,10.50
2019-06-26T16:36:34.845Z,8.60
2019-06-26T16:39:06.972Z,11.40
2019-06-26T16:41:37.583Z,5.78
2019-06-26T16:44:08.061Z,8.18
2019-06-26T16:46:38.576Z,9.58
2019-06-26T16:49:08.946Z,9.43
2019-06-26T16:51:39.356Z,10.60
2019-06-26T16:54:09.659Z,6.85
2019-06-26T16:56:40.390Z,11.40
2019-06-26T16:59:10.794Z,8.68
2019-06-26T17:01:41.269Z,5.17
2019-06-26T17:04:11.652Z,6.40
2019-06-26T17:06:42.371Z,8.73
2019-06-26T17:09:12.837Z,5.55
2019-06-26T17:11:43.229Z,4.72
2019-06-26T17:14:13.750Z,7.78
2019-06-26T17:16:44.259Z,8.80
2019-06-26T17:19:14.950Z,4.55
2019-06-26T17:21:45.987Z,4.67
2019-06-26T17:24:16.376Z,12.55
2019-06-26T17:26:46.850Z,7.50
2019-06-26T17:29:18.229Z,6.78
2019-06-26T17:31:48.711Z,4.70
2019-06-26T17:34:19.204Z,6.33
2019-06-26T17:36:49.744Z,3.92
2019-06-26T17:39:20.435Z,7.97
2019-06-26T17:41:50.938Z,6.03
2019-06-26T17:44:21.765Z,6.85
2019-06-26T17:46:52.187Z,5.83
2019-06-26T17:49:23.075Z,3.12
2019-06-26T17:51:53.525Z,8.13
2019-06-26T17:54:24.145Z,3.45
2019-06-26T17:56:54.565Z,4.47
2019-06-26T17:59:24.866Z,4.95
2019-06-26T18:01:55.414Z,3.55
2019-06-26T18:04:25.803Z,4.83
2019-06-26T18:06:56.215Z,4.90
2019-06-26T18:09:26.938Z,3.85
2019-06-26T18:11:57.374Z,7.87
2019-06-26T18:14:27.797Z,3.67
2019-06-26T18:16:58.235Z,3.40
2019-06-26T18:19:28.725Z,7.08
2019-06-26T18:21:59.225Z,4.12
2019-06-26T18:24:29.639Z,5.42
2019-06-26T18:27:00.159Z,6.37
2019-06-26T18:29:30.505Z,2.98
2019-06-26T18:32:03.059Z,4.95
2019-06-26T18:34:33.784Z,9.43
2019-06-26T18:37:04.449Z,4.65
2019-06-26T18:39:34.857Z,2.85
2019-06-26T18:42:05.643Z,3.12
2019-06-26T18:44:36.299Z,3.20
2019-06-26T18:47:06.819Z,4.60
2019-06-26T18:49:37.456Z,4.37
2019-06-26T18:52:08.160Z,5.42
2019-06-26T18:54:39.135Z,3.62
2019-06-26T18:57:09.474Z,3.40
2019-06-26T18:59:42.748Z,5.28
2019-06-26T19:02:14.166Z,5.53
2019-06-26T19:04:44.686Z,3.42
2019-06-26T19:07:15.181Z,4.30
2019-06-26T19:09:45.500Z,6.50
2019-06-26T19:12:16.616Z,4.47
2019-06-26T19:14:47.205Z,5.58
2019-06-26T19:17:17.813Z,4.12
2019-06-26T19:19:48.119Z,5.53
2019-06-26T19:22:19.220Z,3.40
2019-06-26T19:24:50.144Z,4.53
2019-06-26T19:27:21.432Z,5.20
2019-06-26T19:29:52.101Z,4.47
2019-06-26T19:32:24.188Z,4.70
2019-06-26T19:34:55.304Z,7.10
2019-06-26T19:37:26.306Z,4.40
2019-06-26T19:39:56.735Z,7.55
2019-06-26T19:42:27.571Z,5.60
2019-06-26T19:44:57.958Z,5.33
2019-06-26T19:47:29.406Z,4.53
2019-06-26T19:49:59.871Z,4.42
2019-06-26T19:52:32.156Z,3.75
2019-06-26T19:55:02.851Z,3.47
2019-06-26T19:57:34.290Z,4.53
2019-06-26T20:00:05.508Z,5.10
2019-06-26T20:02:36.051Z,4.05
2019-06-26T20:05:07.619Z,4.30
2019-06-26T20:07:38.165Z,7.20
2019-06-26T20:10:09.365Z,4.58
2019-06-26T20:12:40.230Z,5.95
2019-06-26T20:15:10.824Z,5.28
2019-06-26T20:17:41.423Z,4.45
2019-06-26T20:20:12.084Z,6.03
2019-06-26T20:22:42.779Z,8.85
2019-06-26T20:25:13.576Z,6.08
2019-06-26T20:27:44.089Z,4.10
2019-06-26T20:30:15.031Z,3.47
2019-06-26T20:32:45.466Z,6.95
2019-06-26T20:35:15.932Z,6.12
2019-06-26T20:37:46.497Z,7.47
2019-06-26T20:40:17.205Z,5.17
2019-06-26T20:42:47.629Z,6.58
2019-06-26T20:45:19.017Z,4.62
2019-06-26T20:47:49.610Z,6.83
2019-06-26T20:50:20.292Z,5.67
2019-06-26T20:52:50.639Z,4.47
2019-06-26T20:55:21.068Z,5.30
2019-06-26T20:57:51.405Z,5.55
2019-06-26T21:00:23.942Z,4.97
2019-06-26T21:02:55.474Z,5.87
2019-06-26T21:05:28.718Z,4.37
2019-06-26T21:07:57.869Z,4.78
2019-06-26T21:10:28.409Z,5.87
2019-06-26T21:12:58.658Z,5.22
2019-06-26T21:15:29.055Z,4.58
2019-06-26T21:17:59.370Z,5.60
2019-06-26T21:20:29.977Z,4.60
2019-06-26T21:23:01.452Z,5.45
2019-06-26T21:25:33.468Z,4.37
2019-06-26T21:28:03.810Z,4.50
2019-06-26T21:30:34.296Z,6.73
2019-06-26T21:33:05.971Z,5.47
2019-06-26T21:35:36.566Z,4.95
2019-06-26T21:38:06.879Z,6.75
2019-06-26T21:40:38.885Z,4.50
2019-06-26T21:43:11.894Z,5.60
2019-06-26T21:45:44.026Z,4.92
2019-06-26T21:48:15.998Z,5.97
2019-06-26T21:50:46.793Z,6.60
2019-06-26T21:53:19.134Z,6.80
2019-06-26T21:55:49.474Z,5.47
2019-06-26T21:58:19.921Z,5.12
2019-06-26T22:00:52.064Z,6.83
2019-06-26T22:03:23.036Z,5.37
2019-06-26T22:05:55.896Z,6.75
2019-06-26T22:08:27.517Z,4.90
2019-06-26T22:10:57.970Z,4.10
2019-06-26T22:13:28.721Z,4.80
2019-06-26T22:15:59.153Z,4.03
2019-06-26T22:18:29.607Z,6.20
2019-06-26T22:21:00.013Z,2.93
2019-06-26T22:23:30.619Z,4.08
2019-06-26T22:26:01.202Z,6.13
2019-06-26T22:28:31.859Z,4.55
2019-06-26T22:31:02.335Z,6.08
2019-06-26T22:33:33.040Z,3.75
2019-06-26T22:36:03.839Z,6.43
2019-06-26T22:38:34.771Z,4.37
2019-06-26T22:41:05.177Z,7.57
2019-06-26T22:43:35.698Z,5.28
2019-06-26T22:46:06.102Z,6.25
2019-06-26T22:48:36.885Z,5.90
2019-06-26T22:51:07.360Z,3.70
2019-06-26T22:53:38.116Z,5.35
2019-06-26T22:56:08.626Z,6.97
2019-06-26T22:58:38.925Z,5.35
2019-06-26T23:01:09.645Z,5.47
2019-06-26T23:03:40.220Z,5.75
2019-06-26T23:06:11.022Z,2.87
2019-06-26T23:08:41.408Z,3.60
2019-06-26T23:11:12.189Z,4.10
2019-06-26T23:13:42.550Z,4.12
2019-06-26T23:16:13.098Z,5.30
2019-06-26T23:18:43.548Z,5.10
2019-06-26T23:21:14.213Z,3.80
2019-06-26T23:23:44.659Z,8.13
2019-06-26T23:26:24.008Z,5.75
2019-06-26T23:28:47.540Z,5.03
2019-06-26T23:31:17.895Z,4.17
2019-06-26T23:33:48.215Z,5.17
2019-06-26T23:36:18.670Z,5.63
2019-06-26T23:38:49.266Z,5.53
2019-06-26T23:41:19.582Z,4.43
2019-06-26T23:43:49.908Z,5.90
2019-06-26T23:46:20.158Z,6.90
2019-06-26T23:48:50.461Z,6.73
2019-06-26T23:51:20.785Z,5.97
2019-06-26T23:53:51.370Z,5.53
2019-06-26T23:56:21.765Z,5.93
2019-06-26T23:58:52.136Z,6.67
